createdAt,value
2022-11-09T00:00:08.248Z,43.22
2022-11-09T00:01:09.899Z,46.08
2022-11-09T00:02:11.556Z,45.85
2022-11-09T00:03:13.685Z,45.80
2022-11-09T00:04:15.403Z,46.17
2022-11-09T00:05:17.171Z,47.03
2022-11-09T00:06:18.828Z,48.58
2022-11-09T00:07:20.582Z,47.17
2022-11-09T00:08:22.521Z,47.28
2022-11-09T00:09:24.226Z,45.30
2022-11-09T00:10:25.925Z,46.20
2022-11-09T00:11:27.778Z,48.20
2022-11-09T00:12:29.441Z,44.17
2022-11-09T00:13:31.236Z,46.22
2022-11-09T00:14:33.245Z,49.40
2022-11-09T00:15:34.914Z,46.88
2022-11-09T00:16:36.619Z,44.47
2022-11-09T00:17:38.285Z,45.60
2022-11-09T00:18:41.438Z,54.63
2022-11-09T00:19:43.181Z,52.42
2022-11-09T00:20:48.047Z,53.10
2022-11-09T00:21:50.083Z,49.08
2022-11-09T00:22:51.747Z,49.92
2022-11-09T00:23:53.551Z,52.05
2022-11-09T00:24:55.198Z,51.40
2022-11-09T00:26:01.119Z,53.28
2022-11-09T00:27:02.784Z,55.10
2022-11-09T00:28:04.629Z,61.63
2022-11-09T00:29:06.476Z,59.58
2022-11-09T00:30:10.586Z,68.22
2022-11-09T00:31:20.537Z,57.67
2022-11-09T00:32:27.519Z,63.45
2022-11-09T00:33:29.553Z,57.75
2022-11-09T00:34:31.201Z,60.30
2022-11-09T00:35:33.568Z,52.45
2022-11-09T00:36:35.215Z,66.07
2022-11-09T00:37:36.934Z,58.05
2022-11-09T00:38:42.735Z,58.25
2022-11-09T00:39:44.448Z,61.58
2022-11-09T00:40:46.122Z,56.92
2022-11-09T00:41:47.779Z,60.63
2022-11-09T00:42:49.434Z,58.70
2022-11-09T00:43:51.904Z,60.25
2022-11-09T00:44:53.770Z,59.83
2022-11-09T00:45:55.465Z,54.90
2022-11-09T00:46:57.131Z,60.42
2022-11-09T00:47:58.814Z,57.33
2022-11-09T00:49:00.513Z,56.92
2022-11-09T00:50:02.160Z,56.53
2022-11-09T00:51:06.657Z,61.67
2022-11-09T00:52:08.747Z,56.55
2022-11-09T00:53:10.400Z,54.55
2022-11-09T00:54:12.658Z,55.53
2022-11-09T00:55:14.746Z,64.50
2022-11-09T00:56:16.480Z,61.67
2022-11-09T00:57:18.142Z,62.38
2022-11-09T00:58:19.871Z,55.45
2022-11-09T00:59:21.509Z,62.75
2022-11-09T01:00:26.344Z,59.42
2022-11-09T01:01:28.074Z,55.13
2022-11-09T01:02:29.836Z,62.33
2022-11-09T01:03:31.568Z,63.15
2022-11-09T01:04:33.325Z,65.28
2022-11-09T01:05:39.632Z,60.97
2022-11-09T01:06:41.447Z,62.33
2022-11-09T01:07:43.166Z,62.63
2022-11-09T01:08:45.870Z,62.08
2022-11-09T01:09:47.527Z,60.20
2022-11-09T01:10:49.475Z,65.05
2022-11-09T01:11:51.189Z,62.50
2022-11-09T01:12:52.808Z,58.60
2022-11-09T01:13:55.233Z,56.00
2022-11-09T01:14:56.945Z,60.80
2022-11-09T01:15:58.600Z,63.92
2022-11-09T01:17:00.262Z,60.90
2022-11-09T01:18:01.987Z,64.28
2022-11-09T01:19:04.053Z,66.22
2022-11-09T01:20:06.208Z,63.92
2022-11-09T01:21:11.012Z,63.08
2022-11-09T01:22:12.758Z,58.20
2022-11-09T01:23:16.742Z,58.13
2022-11-09T01:24:18.712Z,65.93
2022-11-09T01:25:20.346Z,69.13
2022-11-09T01:26:22.553Z,61.00
2022-11-09T01:27:24.266Z,63.42
2022-11-09T01:28:26.052Z,65.25
2022-11-09T01:29:27.758Z,66.55
2022-11-09T01:30:30.214Z,65.95
2022-11-09T01:31:32.022Z,62.95
2022-11-09T01:32:33.697Z,62.05
2022-11-09T01:33:36.052Z,63.10
2022-11-09T01:34:37.679Z,66.75
2022-11-09T01:35:40.653Z,65.20
2022-11-09T01:36:42.323Z,70.15
2022-11-09T01:37:44.021Z,68.47
2022-11-09T01:38:46.065Z,67.38
2022-11-09T01:39:47.709Z,67.20
2022-11-09T01:40:49.365Z,61.42
2022-11-09T01:41:51.053Z,69.72
2022-11-09T01:42:52.758Z,61.63
2022-11-09T01:44:03.468Z,66.55
2022-11-09T01:45:17.355Z,67.10
2022-11-09T01:46:22.933Z,62.33
2022-11-09T01:47:25.883Z,60.55
2022-11-09T01:48:41.618Z,58.17
2022-11-09T01:49:50.824Z,64.32
2022-11-09T01:50:58.635Z,65.63
2022-11-09T01:52:26.568Z,56.03
2022-11-09T01:53:32.804Z,63.70
2022-11-09T01:54:48.287Z,66.13
2022-11-09T01:55:53.205Z,70.82
2022-11-09T01:56:59.576Z,60.83
2022-11-09T01:58:07.705Z,62.33
2022-11-09T01:59:15.050Z,68.03
2022-11-09T02:00:17.794Z,61.63
2022-11-09T02:01:19.579Z,67.05
2022-11-09T02:02:21.973Z,63.70
2022-11-09T02:03:29.731Z,63.13
2022-11-09T02:04:43.749Z,66.63
2022-11-09T02:05:46.475Z,65.85
2022-11-09T02:06:49.456Z,64.68
2022-11-09T02:07:52.300Z,62.80
2022-11-09T02:08:58.572Z,66.07
2022-11-09T02:10:12.696Z,62.47
2022-11-09T02:11:17.960Z,64.82
2022-11-09T02:12:20.386Z,64.05
2022-11-09T02:13:25.182Z,65.10
2022-11-09T02:14:29.564Z,64.15
2022-11-09T02:15:31.229Z,64.32
2022-11-09T02:16:33.776Z,55.72
2022-11-09T02:17:36.338Z,59.15
2022-11-09T02:18:52.148Z,62.28
2022-11-09T02:19:53.830Z,62.55
2022-11-09T02:20:58.164Z,55.92
2022-11-09T02:21:59.974Z,61.85
2022-11-09T02:23:01.786Z,56.20
2022-11-09T02:24:03.511Z,58.45
2022-11-09T02:25:05.889Z,63.75
2022-11-09T02:26:12.347Z,69.30
2022-11-09T02:27:14.048Z,51.50
2022-11-09T02:28:17.608Z,54.67
2022-11-09T02:29:35.632Z,59.50
2022-11-09T02:30:37.503Z,66.18
2022-11-09T02:31:44.927Z,61.75
2022-11-09T02:32:46.668Z,58.65
2022-11-09T02:33:51.316Z,64.05
2022-11-09T02:34:53.045Z,57.22
2022-11-09T02:35:54.754Z,54.53
2022-11-09T02:36:56.444Z,58.90
2022-11-09T02:37:58.442Z,58.10
2022-11-09T02:39:00.178Z,56.78
2022-11-09T02:40:07.702Z,56.47
2022-11-09T02:41:11.989Z,64.00
2022-11-09T02:42:21.198Z,59.78
2022-11-09T02:43:23.628Z,66.30
2022-11-09T02:44:26.406Z,55.47
2022-11-09T02:45:28.116Z,58.35
2022-11-09T02:46:35.607Z,57.53
2022-11-09T02:47:37.261Z,60.63
2022-11-09T02:48:38.920Z,56.88
2022-11-09T02:49:40.603Z,58.00
2022-11-09T02:50:42.387Z,59.83
2022-11-09T02:51:44.171Z,57.90
2022-11-09T02:52:45.830Z,60.90
2022-11-09T02:53:47.487Z,61.10
2022-11-09T02:54:49.170Z,64.72
2022-11-09T02:55:51.046Z,70.22
2022-11-09T02:56:52.740Z,66.50
2022-11-09T02:57:54.394Z,65.38
2022-11-09T02:58:56.181Z,70.55
2022-11-09T02:59:57.861Z,72.05
2022-11-09T03:00:59.541Z,66.70
2022-11-09T03:02:01.727Z,71.70
2022-11-09T03:03:04.253Z,72.20
2022-11-09T03:04:05.961Z,69.60
2022-11-09T03:05:08.112Z,74.22
2022-11-09T03:06:09.781Z,70.65
2022-11-09T03:07:11.520Z,70.60
2022-11-09T03:08:13.208Z,64.50
2022-11-09T03:09:14.902Z,71.07
2022-11-09T03:10:16.859Z,70.97
2022-11-09T03:11:18.547Z,70.70
2022-11-09T03:12:29.418Z,69.78
2022-11-09T03:13:31.103Z,69.63
2022-11-09T03:14:33.470Z,60.58
2022-11-09T03:15:35.594Z,70.75
2022-11-09T03:16:38.669Z,68.90
2022-11-09T03:17:40.699Z,71.53
2022-11-09T03:18:42.391Z,67.03
2022-11-09T03:19:44.767Z,68.53
2022-11-09T03:20:46.395Z,71.05
2022-11-09T03:21:48.132Z,70.95
2022-11-09T03:22:49.950Z,72.32
2022-11-09T03:23:51.724Z,70.82
2022-11-09T03:24:53.369Z,68.63
2022-11-09T03:25:55.020Z,65.43
2022-11-09T03:26:56.674Z,70.15
2022-11-09T03:28:02.881Z,65.38
2022-11-09T03:29:04.608Z,64.55
2022-11-09T03:30:06.970Z,65.20
2022-11-09T03:31:09.049Z,57.65
2022-11-09T03:32:10.931Z,62.80
2022-11-09T03:33:14.432Z,67.45
2022-11-09T03:34:16.059Z,66.95
2022-11-09T03:35:17.866Z,55.03
2022-11-09T03:36:19.519Z,68.85
2022-11-09T03:37:21.227Z,54.50
2022-11-09T03:38:23.406Z,59.53
2022-11-09T03:39:25.238Z,60.95
2022-11-09T03:40:26.927Z,57.15
2022-11-09T03:41:28.567Z,63.47
2022-11-09T03:42:30.239Z,54.25
2022-11-09T03:43:31.960Z,58.67
2022-11-09T03:44:33.601Z,51.63
2022-11-09T03:45:35.265Z,54.70
2022-11-09T03:46:37.021Z,49.60
2022-11-09T03:47:42.996Z,52.95
2022-11-09T03:48:44.694Z,48.10
2022-11-09T03:49:46.391Z,43.30
2022-11-09T03:50:48.117Z,48.97
2022-11-09T03:51:50.910Z,49.75
2022-11-09T03:52:52.768Z,48.67
2022-11-09T03:53:54.456Z,39.42
2022-11-09T03:54:56.122Z,41.40
2022-11-09T03:55:58.377Z,45.45
2022-11-09T03:57:00.046Z,47.22
2022-11-09T03:58:02.229Z,42.45
2022-11-09T03:59:03.941Z,44.25
2022-11-09T04:00:07.752Z,47.35
2022-11-09T04:01:10.966Z,41.13
2022-11-09T04:02:12.797Z,44.28
2022-11-09T04:03:14.483Z,41.45
2022-11-09T04:04:16.176Z,37.70
2022-11-09T04:05:17.973Z,40.17
2022-11-09T04:06:19.615Z,50.90
2022-11-09T04:07:21.247Z,40.50
2022-11-09T04:08:23.092Z,46.17
2022-11-09T04:09:24.759Z,44.20
2022-11-09T04:10:27.245Z,47.88
2022-11-09T04:11:28.926Z,52.42
2022-11-09T04:12:30.630Z,53.92
2022-11-09T04:13:32.308Z,48.22
2022-11-09T04:14:33.948Z,48.35
2022-11-09T04:15:36.459Z,45.70
2022-11-09T04:16:38.601Z,44.47
2022-11-09T04:17:40.948Z,43.00
2022-11-09T04:18:42.584Z,44.75
2022-11-09T04:19:44.239Z,49.75
2022-11-09T04:20:45.904Z,47.08
2022-11-09T04:21:47.566Z,41.88
2022-11-09T04:23:00.256Z,41.67
2022-11-09T04:24:01.956Z,43.20
2022-11-09T04:25:05.169Z,39.40
2022-11-09T04:26:06.960Z,39.78
2022-11-09T04:27:08.623Z,41.08
2022-11-09T04:28:12.808Z,46.70
2022-11-09T04:29:14.563Z,43.80
2022-11-09T04:30:16.461Z,39.55
2022-11-09T04:31:18.147Z,41.00
2022-11-09T04:32:19.797Z,48.03
2022-11-09T04:33:21.880Z,44.55
2022-11-09T04:34:23.882Z,43.08
2022-11-09T04:35:27.789Z,47.70
2022-11-09T04:36:29.419Z,46.00
2022-11-09T04:37:31.100Z,45.13
2022-11-09T04:38:33.066Z,41.97
2022-11-09T04:39:34.762Z,36.75
2022-11-09T04:40:36.825Z,40.63
2022-11-09T04:41:38.573Z,43.45
2022-11-09T04:42:40.207Z,41.67
2022-11-09T04:43:42.340Z,43.80
2022-11-09T04:44:43.990Z,41.53
2022-11-09T04:45:47.466Z,43.55
2022-11-09T04:46:49.128Z,47.35
2022-11-09T04:47:50.784Z,48.17
2022-11-09T04:48:52.552Z,52.03
2022-11-09T04:49:54.217Z,51.88
2022-11-09T04:51:01.454Z,51.05
2022-11-09T04:52:03.228Z,49.42
2022-11-09T04:53:09.806Z,59.60
2022-11-09T04:54:11.724Z,59.22
2022-11-09T04:55:13.345Z,63.08
2022-11-09T04:56:15.014Z,61.30
2022-11-09T04:57:16.665Z,57.90
2022-11-09T04:58:23.785Z,55.25
2022-11-09T04:59:26.543Z,64.60
2022-11-09T05:00:28.317Z,59.97
2022-11-09T05:01:30.062Z,62.45
2022-11-09T05:02:32.323Z,58.92
2022-11-09T05:03:34.793Z,60.53
2022-11-09T05:04:36.482Z,55.03
2022-11-09T05:05:44.076Z,60.85
2022-11-09T05:06:48.804Z,60.47
2022-11-09T05:07:50.479Z,55.47
2022-11-09T05:08:53.451Z,58.72
2022-11-09T05:09:55.163Z,53.35
2022-11-09T05:10:58.189Z,60.53
2022-11-09T05:11:59.847Z,54.33
2022-11-09T05:13:07.228Z,45.88
2022-11-09T05:14:08.888Z,44.42
2022-11-09T05:15:11.173Z,46.47
2022-11-09T05:16:13.259Z,53.10
2022-11-09T05:17:14.977Z,49.22
2022-11-09T05:18:16.647Z,47.50
2022-11-09T05:19:18.351Z,56.80
2022-11-09T05:20:20.145Z,51.67
2022-11-09T05:21:22.191Z,41.78
2022-11-09T05:22:42.577Z,51.70
2022-11-09T05:23:59.772Z,45.00
2022-11-09T05:25:01.537Z,48.13
2022-11-09T05:26:03.440Z,44.90
2022-11-09T05:27:05.191Z,49.17
2022-11-09T05:28:06.881Z,43.45
2022-11-09T05:29:10.669Z,47.63
2022-11-09T05:30:12.636Z,48.47
2022-11-09T05:31:14.420Z,51.15
2022-11-09T05:32:16.046Z,48.60
2022-11-09T05:33:18.175Z,42.33
2022-11-09T05:34:20.165Z,39.53
2022-11-09T05:35:21.826Z,41.22
2022-11-09T05:36:24.537Z,39.58
2022-11-09T05:37:26.232Z,43.17
2022-11-09T05:38:27.931Z,44.58
2022-11-09T05:39:29.587Z,45.92
2022-11-09T05:40:32.298Z,45.28
2022-11-09T05:41:33.947Z,44.28
2022-11-09T05:42:38.994Z,44.80
2022-11-09T05:43:41.375Z,48.78
2022-11-09T05:44:43.137Z,47.13
2022-11-09T05:45:45.134Z,46.65
2022-11-09T05:46:46.776Z,49.55
2022-11-09T05:47:48.564Z,44.47
2022-11-09T05:48:50.293Z,51.58
2022-11-09T05:49:51.975Z,46.38
2022-11-09T05:50:53.673Z,47.60
2022-11-09T05:51:55.305Z,42.17
2022-11-09T05:52:59.493Z,39.45
2022-11-09T05:54:01.126Z,38.15
2022-11-09T05:55:03.028Z,36.80
2022-11-09T05:56:05.947Z,37.15
2022-11-09T05:57:07.640Z,43.47
2022-11-09T05:58:09.526Z,38.75
2022-11-09T05:59:11.330Z,39.42
2022-11-09T06:00:14.011Z,40.25
2022-11-09T06:01:18.851Z,42.33
2022-11-09T06:02:20.859Z,44.65
2022-11-09T06:03:22.919Z,54.35
2022-11-09T06:04:24.932Z,45.15
2022-11-09T06:05:26.610Z,48.75
2022-11-09T06:06:30.067Z,50.72
2022-11-09T06:07:32.878Z,46.83
2022-11-09T06:08:35.016Z,52.95
2022-11-09T06:09:36.684Z,46.83
2022-11-09T06:10:38.726Z,54.13
2022-11-09T06:11:40.455Z,52.05
2022-11-09T06:12:42.081Z,52.65
2022-11-09T06:13:43.756Z,61.85
2022-11-09T06:14:45.452Z,62.92
2022-11-09T06:15:53.988Z,59.42
2022-11-09T06:16:55.733Z,56.42
2022-11-09T06:17:59.403Z,55.35
2022-11-09T06:19:01.251Z,55.25
2022-11-09T06:20:04.289Z,60.53
2022-11-09T06:21:06.410Z,55.17
2022-11-09T06:22:08.366Z,52.05
2022-11-09T06:23:10.082Z,67.05
2022-11-09T06:24:11.891Z,56.03
2022-11-09T06:25:13.612Z,52.45
2022-11-09T06:26:15.515Z,54.55
2022-11-09T06:27:17.157Z,55.97
2022-11-09T06:28:18.899Z,53.05
2022-11-09T06:29:20.556Z,60.17
2022-11-09T06:30:22.933Z,48.25
2022-11-09T06:31:24.605Z,52.10
2022-11-09T06:32:26.342Z,53.22
2022-11-09T06:33:30.771Z,56.33
2022-11-09T06:34:32.485Z,55.10
2022-11-09T06:35:34.164Z,61.15
2022-11-09T06:36:35.820Z,60.25
2022-11-09T06:37:37.647Z,68.55
2022-11-09T06:38:39.957Z,70.90
2022-11-09T06:39:41.623Z,54.15
2022-11-09T06:40:44.480Z,54.28
2022-11-09T06:41:47.628Z,54.30
2022-11-09T06:42:49.582Z,46.40
2022-11-09T06:43:51.277Z,58.38
2022-11-09T06:44:52.940Z,52.80
2022-11-09T06:45:55.273Z,61.97
2022-11-09T06:46:56.968Z,58.53
2022-11-09T06:48:00.356Z,57.40
2022-11-09T06:49:02.087Z,57.67
2022-11-09T06:50:04.009Z,60.58
2022-11-09T06:51:06.791Z,63.53
2022-11-09T06:52:08.493Z,65.03
2022-11-09T06:53:12.893Z,59.03
2022-11-09T06:54:14.551Z,54.55
2022-11-09T06:55:16.309Z,61.75
2022-11-09T06:56:18.047Z,53.35
2022-11-09T06:57:19.694Z,53.30
2022-11-09T06:58:22.169Z,52.85
2022-11-09T06:59:23.986Z,55.63
2022-11-09T07:00:27.712Z,62.55
2022-11-09T07:01:29.914Z,57.75
2022-11-09T07:02:31.832Z,67.43
2022-11-09T07:03:33.486Z,63.97
2022-11-09T07:04:35.127Z,64.45
2022-11-09T07:05:40.206Z,63.88
2022-11-09T07:06:42.197Z,64.72
2022-11-09T07:07:44.331Z,64.82
2022-11-09T07:08:45.965Z,73.90
2022-11-09T07:09:47.624Z,70.25
2022-11-09T07:10:49.380Z,67.95
2022-11-09T07:11:51.065Z,67.53
2022-11-09T07:12:52.739Z,77.00
2022-11-09T07:13:57.368Z,76.20
2022-11-09T07:14:59.472Z,69.82
2022-11-09T07:16:01.443Z,71.63
2022-11-09T07:17:03.190Z,68.88
2022-11-09T07:18:07.437Z,67.47
2022-11-09T07:19:09.098Z,69.57
2022-11-09T07:20:11.768Z,67.60
2022-11-09T07:21:14.541Z,66.65
2022-11-09T07:22:16.441Z,64.30
2022-11-09T07:23:18.693Z,67.82
2022-11-09T07:24:20.704Z,74.53
2022-11-09T07:25:22.898Z,74.18
2022-11-09T07:26:24.596Z,68.93
2022-11-09T07:27:28.120Z,71.07
2022-11-09T07:28:30.500Z,74.88
2022-11-09T07:29:32.189Z,75.60
2022-11-09T07:30:34.173Z,77.82
2022-11-09T07:31:35.819Z,81.53
2022-11-09T07:33:08.652Z,69.47
2022-11-09T07:34:04.850Z,77.13
2022-11-09T07:35:08.166Z,71.72
2022-11-09T07:36:09.885Z,73.22
2022-11-09T07:37:11.556Z,73.60
2022-11-09T07:38:15.855Z,72.35
2022-11-09T07:39:17.518Z,56.13
2022-11-09T07:40:19.912Z,68.38
2022-11-09T07:41:21.557Z,59.65
2022-11-09T07:42:24.182Z,56.67
2022-11-09T07:43:26.051Z,56.75
2022-11-09T07:44:27.727Z,59.88
2022-11-09T07:45:30.453Z,59.95
2022-11-09T07:46:32.494Z,56.83
2022-11-09T07:47:34.151Z,65.35
2022-11-09T07:48:35.805Z,61.60
2022-11-09T07:49:37.483Z,57.25
2022-11-09T07:50:40.506Z,60.45
2022-11-09T07:51:42.919Z,78.30
2022-11-09T07:52:44.587Z,70.40
2022-11-09T07:53:46.281Z,82.85
2022-11-09T07:54:51.979Z,69.53
2022-11-09T07:56:01.781Z,64.03
2022-11-09T07:57:03.561Z,72.65
2022-11-09T07:58:11.722Z,62.15
2022-11-09T07:59:13.382Z,62.38
2022-11-09T08:00:19.842Z,65.43
2022-11-09T08:01:24.241Z,76.75
2022-11-09T08:02:26.015Z,69.78
2022-11-09T08:03:27.982Z,69.10
2022-11-09T08:04:29.714Z,61.20
2022-11-09T08:05:31.887Z,61.38
2022-11-09T08:06:33.806Z,63.45
2022-11-09T08:07:35.547Z,63.03
2022-11-09T08:08:37.236Z,69.10
2022-11-09T08:09:38.906Z,69.53
2022-11-09T08:10:40.648Z,63.72
2022-11-09T08:11:42.283Z,64.15
2022-11-09T08:12:43.916Z,64.68
2022-11-09T08:13:45.693Z,63.00
2022-11-09T08:14:47.370Z,63.05
2022-11-09T08:15:49.567Z,63.42
2022-11-09T08:16:51.257Z,63.15
2022-11-09T08:17:53.315Z,60.83
2022-11-09T08:18:54.990Z,63.97
2022-11-09T08:19:56.659Z,69.47
2022-11-09T08:21:02.287Z,56.35
2022-11-09T08:22:03.943Z,62.35
2022-11-09T08:23:06.915Z,57.83
2022-11-09T08:24:08.817Z,59.92
2022-11-09T08:25:11.291Z,59.40
2022-11-09T08:26:13.054Z,58.72
2022-11-09T08:27:14.708Z,57.58
2022-11-09T08:28:16.590Z,51.95
2022-11-09T08:29:18.460Z,49.97
2022-11-09T08:30:21.543Z,52.50
2022-11-09T08:31:23.310Z,155.55
2022-11-09T08:32:24.955Z,52.30
2022-11-09T08:33:28.565Z,52.15
2022-11-09T08:34:30.210Z,52.05
2022-11-09T08:35:32.088Z,53.75
2022-11-09T08:36:36.277Z,52.10
2022-11-09T08:37:38.908Z,50.38
2022-11-09T08:38:41.715Z,48.83
2022-11-09T08:39:43.403Z,54.35
2022-11-09T08:40:45.076Z,48.72
2022-11-09T08:41:46.750Z,52.42
2022-11-09T08:42:48.497Z,58.20
2022-11-09T08:43:50.179Z,48.15
2022-11-09T08:44:51.834Z,52.13
2022-11-09T08:45:53.936Z,53.28
2022-11-09T08:46:55.566Z,56.22
2022-11-09T08:47:59.082Z,51.45
2022-11-09T08:49:00.818Z,54.15
2022-11-09T08:50:04.638Z,48.13
2022-11-09T08:51:06.432Z,55.38
2022-11-09T08:52:08.156Z,43.53
2022-11-09T08:53:09.800Z,48.20
2022-11-09T08:54:13.636Z,54.30
2022-11-09T08:55:15.325Z,47.90
2022-11-09T08:56:19.164Z,51.03
2022-11-09T08:57:20.813Z,54.35
2022-11-09T08:58:22.873Z,49.72
2022-11-09T08:59:24.819Z,49.17
2022-11-09T09:00:27.267Z,44.60
2022-11-09T09:01:29.067Z,39.95
2022-11-09T09:02:30.848Z,43.08
2022-11-09T09:03:32.516Z,44.83
2022-11-09T09:04:34.192Z,43.90
2022-11-09T09:05:36.698Z,40.88
2022-11-09T09:06:38.569Z,47.13
2022-11-09T09:07:40.344Z,46.10
2022-11-09T09:08:41.994Z,47.80
2022-11-09T09:09:44.763Z,53.60
2022-11-09T09:10:46.406Z,50.17
2022-11-09T09:11:48.056Z,56.30
2022-11-09T09:12:49.712Z,52.95
2022-11-09T09:13:51.367Z,49.55
2022-11-09T09:14:53.041Z,53.53
2022-11-09T09:15:54.682Z,55.78
2022-11-09T09:16:56.808Z,55.65
2022-11-09T09:18:02.377Z,128.48
2022-11-09T09:19:04.898Z,57.20
2022-11-09T09:20:07.135Z,70.25
2022-11-09T09:21:10.440Z,55.47
2022-11-09T09:22:12.481Z,49.55
2022-11-09T09:23:15.395Z,62.25
2022-11-09T09:24:17.389Z,50.33
2022-11-09T09:25:19.034Z,53.83
2022-11-09T09:26:20.848Z,45.95
2022-11-09T09:27:22.537Z,46.45
2022-11-09T09:28:24.224Z,53.70
2022-11-09T09:29:25.936Z,51.65
2022-11-09T09:30:27.662Z,53.28
2022-11-09T09:31:29.323Z,51.60
2022-11-09T09:32:30.988Z,48.85
2022-11-09T09:33:32.770Z,50.42
2022-11-09T09:34:34.443Z,46.58
2022-11-09T09:35:36.176Z,54.88
2022-11-09T09:36:42.041Z,49.30
2022-11-09T09:37:46.553Z,90.93
2022-11-09T09:38:52.721Z,50.58
2022-11-09T09:39:54.356Z,44.65
2022-11-09T09:41:05.983Z,45.00
2022-11-09T09:42:14.376Z,45.33
2022-11-09T09:43:26.016Z,50.63
2022-11-09T09:44:35.373Z,49.90
2022-11-09T09:45:49.162Z,46.92
2022-11-09T09:46:59.214Z,47.58
2022-11-09T09:48:04.739Z,49.00
2022-11-09T09:49:14.807Z,53.17
2022-11-09T09:50:23.071Z,42.92
2022-11-09T09:51:29.489Z,51.00
2022-11-09T09:53:22.318Z,47.65
2022-11-09T09:54:30.673Z,47.03
2022-11-09T09:55:39.047Z,42.00
2022-11-09T09:56:44.246Z,44.80
2022-11-09T09:57:54.359Z,44.95
2022-11-09T09:59:28.080Z,47.73
2022-11-09T10:00:33.399Z,46.53
2022-11-09T10:01:41.409Z,47.63
2022-11-09T10:02:43.398Z,51.67
2022-11-09T10:03:45.050Z,49.60
2022-11-09T10:04:47.190Z,42.85
2022-11-09T10:05:58.602Z,46.00
2022-11-09T10:07:00.446Z,55.40
2022-11-09T10:08:16.192Z,46.25
2022-11-09T10:09:23.851Z,47.88
2022-11-09T10:11:03.897Z,46.47
2022-11-09T10:12:23.118Z,45.78
2022-11-09T10:13:50.627Z,41.30
2022-11-09T10:15:13.916Z,46.75
2022-11-09T10:16:29.624Z,46.17
2022-11-09T10:17:49.838Z,44.90
2022-11-09T10:18:54.245Z,44.70
2022-11-09T10:20:24.078Z,41.28
2022-11-09T10:21:37.716Z,45.47
2022-11-09T10:23:14.710Z,41.30
2022-11-09T10:24:36.776Z,38.58
2022-11-09T10:27:02.918Z,34.75
2022-11-09T10:28:13.259Z,34.10
2022-11-09T10:29:24.454Z,34.83
2022-11-09T10:31:32.861Z,37.03
2022-11-09T10:32:35.092Z,36.55
2022-11-09T10:33:37.177Z,39.65
2022-11-09T10:35:03.173Z,39.20
2022-11-09T10:36:25.073Z,44.45
2022-11-09T10:37:37.087Z,49.50
2022-11-09T10:38:47.226Z,35.10
2022-11-09T10:40:05.537Z,40.43
2022-11-09T10:41:39.817Z,39.28
2022-11-09T10:42:56.074Z,37.60
2022-11-09T10:43:57.842Z,38.45
2022-11-09T10:45:02.248Z,36.45
2022-11-09T10:46:06.602Z,35.20
2022-11-09T10:47:16.821Z,39.80
2022-11-09T10:48:31.169Z,41.28
2022-11-09T10:49:34.298Z,39.30
2022-11-09T10:50:47.925Z,28.85
2022-11-09T10:51:49.713Z,31.65
2022-11-09T10:52:51.612Z,36.72
2022-11-09T10:54:23.507Z,36.95
2022-11-09T10:55:29.006Z,45.47
2022-11-09T10:57:05.148Z,32.67
2022-11-09T10:58:18.164Z,32.97
2022-11-09T10:59:44.713Z,34.47
2022-11-09T11:01:15.682Z,31.02
2022-11-09T11:02:29.042Z,34.63
2022-11-09T11:03:35.448Z,26.30
2022-11-09T11:04:37.145Z,31.17
2022-11-09T11:05:39.904Z,26.63
2022-11-09T11:06:41.627Z,31.83
2022-11-09T11:07:43.683Z,31.45
2022-11-09T11:09:07.538Z,27.85
2022-11-09T11:10:10.302Z,27.15
2022-11-09T11:11:33.104Z,27.55
2022-11-09T11:12:36.338Z,31.85
2022-11-09T11:13:38.008Z,26.77
2022-11-09T11:14:44.640Z,27.17
2022-11-09T11:15:46.808Z,24.98
2022-11-09T11:16:50.857Z,22.70
2022-11-09T11:18:02.151Z,23.95
2022-11-09T11:19:04.711Z,27.85
2022-11-09T11:20:31.018Z,26.98
2022-11-09T11:21:32.678Z,30.90
2022-11-09T11:22:34.387Z,28.65
2022-11-09T11:23:37.121Z,25.52
2022-11-09T11:24:51.836Z,30.08
2022-11-09T11:25:53.430Z,27.52
2022-11-09T11:27:10.210Z,29.70
2022-11-09T11:28:24.445Z,36.97
2022-11-09T11:29:52.325Z,29.90
2022-11-09T11:30:54.022Z,31.50
2022-11-09T11:31:55.751Z,33.15
2022-11-09T11:32:58.073Z,30.02
2022-11-09T11:34:01.006Z,30.15
2022-11-09T11:35:18.173Z,31.92
2022-11-09T11:36:26.074Z,29.17
2022-11-09T11:37:37.947Z,25.88
2022-11-09T11:38:45.667Z,28.88
2022-11-09T11:40:04.345Z,29.17
2022-11-09T11:41:28.065Z,30.23
2022-11-09T11:43:03.736Z,28.85
2022-11-09T11:44:20.657Z,29.73
2022-11-09T11:45:41.832Z,34.33
2022-11-09T11:46:54.417Z,28.85
2022-11-09T11:48:14.019Z,32.88
2022-11-09T11:49:30.695Z,30.50
2022-11-09T11:50:44.503Z,26.10
2022-11-09T11:52:27.720Z,36.08
2022-11-09T11:53:51.427Z,29.05
2022-11-09T11:55:23.416Z,22.90
2022-11-09T11:56:36.962Z,25.25
2022-11-09T11:58:16.703Z,26.52
2022-11-09T11:59:55.976Z,23.63
2022-11-09T12:01:00.250Z,24.13
2022-11-09T12:02:23.921Z,32.35
2022-11-09T12:03:59.344Z,37.08
2022-11-09T12:05:09.737Z,28.02
2022-11-09T12:06:35.145Z,24.73
2022-11-09T12:07:58.720Z,28.75
2022-11-09T12:09:06.345Z,29.13
2022-11-09T12:10:28.070Z,30.50
2022-11-09T12:11:57.375Z,26.15
2022-11-09T12:13:11.095Z,30.25
2022-11-09T12:14:18.748Z,28.20
2022-11-09T12:15:23.443Z,24.73
2022-11-09T12:16:34.258Z,25.48
2022-11-09T12:17:44.904Z,26.92
2022-11-09T12:19:25.452Z,25.27
2022-11-09T12:20:41.340Z,25.27
2022-11-09T12:21:59.538Z,25.52
2022-11-09T12:23:30.174Z,30.73
2022-11-09T12:24:55.257Z,28.98
2022-11-09T12:26:33.657Z,41.35
2022-11-09T12:27:53.435Z,27.90
2022-11-09T12:29:07.199Z,31.80
2022-11-09T12:30:16.669Z,35.22
2022-11-09T12:31:36.692Z,33.47
2022-11-09T12:32:53.487Z,24.90
2022-11-09T12:34:03.186Z,29.98
2022-11-09T12:35:21.022Z,30.42
2022-11-09T12:36:29.165Z,32.65
2022-11-09T12:37:39.332Z,31.73
2022-11-09T12:39:20.477Z,36.88
2022-11-09T12:41:02.418Z,33.05
2022-11-09T12:43:11.122Z,30.35
2022-11-09T12:44:22.028Z,29.00
2022-11-09T12:45:32.801Z,47.63
2022-11-09T12:46:40.341Z,28.40
2022-11-09T12:47:44.372Z,31.33
2022-11-09T12:48:48.432Z,30.50
2022-11-09T12:49:51.282Z,32.72
2022-11-09T12:50:53.919Z,27.30
2022-11-09T12:51:58.933Z,34.40
2022-11-09T12:53:03.760Z,27.80
2022-11-09T12:54:11.488Z,25.52
2022-11-09T12:55:19.914Z,28.02
2022-11-09T12:56:40.480Z,27.75
2022-11-09T12:57:46.224Z,31.33
2022-11-09T12:58:47.968Z,31.42
2022-11-09T12:59:58.153Z,33.40
2022-11-09T13:01:12.464Z,25.13
2022-11-09T13:02:23.715Z,28.90
2022-11-09T13:03:27.610Z,28.63
2022-11-09T13:04:29.841Z,25.13
2022-11-09T13:05:37.814Z,28.95
2022-11-09T13:06:39.702Z,30.58
2022-11-09T13:07:49.908Z,31.85
2022-11-09T13:09:01.562Z,28.07
2022-11-09T13:10:04.309Z,27.77
2022-11-09T13:11:48.785Z,35.72
2022-11-09T13:12:50.483Z,30.08
2022-11-09T13:13:52.128Z,29.65
2022-11-09T13:14:54.008Z,30.27
2022-11-09T13:16:33.346Z,30.08
2022-11-09T13:17:37.752Z,35.25
2022-11-09T13:18:45.483Z,33.33
2022-11-09T13:19:48.552Z,24.48
2022-11-09T13:20:56.980Z,26.98
2022-11-09T13:21:59.360Z,28.52
2022-11-09T13:23:41.584Z,27.90
2022-11-09T13:25:02.186Z,29.90
2022-11-09T13:26:05.268Z,25.65
2022-11-09T13:27:29.668Z,31.63
2022-11-09T13:28:31.274Z,29.80
2022-11-09T13:29:42.067Z,28.65
2022-11-09T13:30:43.925Z,32.53
2022-11-09T13:32:04.205Z,32.38
2022-11-09T13:33:05.776Z,30.67
2022-11-09T13:34:39.639Z,28.15
2022-11-09T13:35:41.220Z,30.77
2022-11-09T13:36:42.908Z,31.95
2022-11-09T13:37:48.180Z,26.40
2022-11-09T13:39:28.131Z,29.35
2022-11-09T13:40:32.800Z,31.38
2022-11-09T13:41:34.443Z,29.83
2022-11-09T13:42:36.952Z,26.75
2022-11-09T13:43:40.811Z,35.08
2022-11-09T13:44:44.626Z,32.08
2022-11-09T13:46:05.079Z,29.48
2022-11-09T13:47:22.142Z,34.13
2022-11-09T13:48:29.948Z,28.13
2022-11-09T13:49:45.424Z,32.50
2022-11-09T13:50:56.533Z,27.15
2022-11-09T13:51:58.464Z,32.05
2022-11-09T13:53:01.510Z,28.02
2022-11-09T13:54:05.635Z,30.48
2022-11-09T13:55:27.222Z,26.52
2022-11-09T13:56:37.676Z,29.02
2022-11-09T13:57:40.582Z,25.20
2022-11-09T13:58:43.298Z,30.40
2022-11-09T13:59:49.439Z,31.13
2022-11-09T14:00:51.074Z,35.13
2022-11-09T14:01:55.336Z,31.40
2022-11-09T14:03:06.785Z,32.38
2022-11-09T14:04:22.121Z,30.48
2022-11-09T14:05:38.698Z,31.30
2022-11-09T14:06:40.479Z,32.45
2022-11-09T14:07:42.207Z,34.25
2022-11-09T14:08:44.133Z,34.67